sensor_id;sensor_type;location;lat;lon;timestamp;pressure;altitude;pressure_sealevel;temperature;humidity
7075;BME280;3578;51.568;6.932;2022-12-18T00:02:26;52729.03;;;-144.14;93.76
7075;BME280;3578;51.568;6.932;2022-12-18T00:04:53;52713.00;;;-144.14;93.71
7075;BME280;3578;51.568;6.932;2022-12-18T00:07:20;52697.00;;;-144.14;94.29
7075;BME280;3578;51.568;6.932;2022-12-18T00:09:47;52694.97;;;-144.14;95.03
7075;BME280;3578;51.568;6.932;2022-12-18T00:12:14;52692.97;;;-144.14;95.71
7075;BME280;3578;51.568;6.932;2022-12-18T00:14:41;52723.03;;;-144.14;95.56
7075;BME280;3578;51.568;6.932;2022-12-18T00:17:11;52692.97;;;-144.14;95.25
7075;BME280;3578;51.568;6.932;2022-12-18T00:19:39;52692.97;;;-144.14;94.38
7075;BME280;3578;51.568;6.932;2022-12-18T00:22:06;52697.00;;;-144.14;93.99
7075;BME280;3578;51.568;6.932;2022-12-18T00:24:33;52705.00;;;-144.14;95.08
7075;BME280;3578;51.568;6.932;2022-12-18T00:27:00;52719.03;;;-144.14;95.54
7075;BME280;3578;51.568;6.932;2022-12-18T00:29:27;52690.97;;;-144.14;96.71
7075;BME280;3578;51.568;6.932;2022-12-18T00:31:54;52668.94;;;-144.14;97.24
7075;BME280;3578;51.568;6.932;2022-12-18T00:34:21;52686.97;;;-144.14;97.16
7075;BME280;3578;51.568;6.932;2022-12-18T00:36:49;52672.94;;;-144.14;97.08
7075;BME280;3578;51.568;6.932;2022-12-18T00:39:16;52672.94;;;-144.14;96.39
7075;BME280;3578;51.568;6.932;2022-12-18T00:41:43;52692.97;;;-144.14;96.52
7075;BME280;3578;51.568;6.932;2022-12-18T00:44:28;52692.97;;;-144.14;95.64
7075;BME280;3578;51.568;6.932;2022-12-18T00:46:55;52680.97;;;-144.14;95.05
7075;BME280;3578;51.568;6.932;2022-12-18T00:49:22;52676.94;;;-144.14;94.63
7075;BME280;3578;51.568;6.932;2022-12-18T00:51:50;52733.06;;;-144.14;94.57
7075;BME280;3578;51.568;6.932;2022-12-18T00:54:20;52694.97;;;-144.14;94.54
7075;BME280;3578;51.568;6.932;2022-12-18T00:56:47;52737.06;;;-144.14;94.88
7075;BME280;3578;51.568;6.932;2022-12-18T00:59:14;52701.00;;;-144.14;95.05
7075;BME280;3578;51.568;6.932;2022-12-18T01:01:41;52701.00;;;-144.14;94.91
7075;BME280;3578;51.568;6.932;2022-12-18T01:04:08;52688.97;;;-144.14;94.46
7075;BME280;3578;51.568;6.932;2022-12-18T01:06:35;52723.03;;;-144.14;93.87
7075;BME280;3578;51.568;6.932;2022-12-18T01:09:03;52680.97;;;-144.14;94.03
7075;BME280;3578;51.568;6.932;2022-12-18T01:11:31;52692.97;;;-144.14;94.17
7075;BME280;3578;51.568;6.932;2022-12-18T01:13:58;52721.03;;;-144.14;94.11
7075;BME280;3578;51.568;6.932;2022-12-18T01:16:28;52697.00;;;-144.14;93.75
7075;BME280;3578;51.568;6.932;2022-12-18T01:18:55;52725.03;;;-144.14;93.04
7075;BME280;3578;51.568;6.932;2022-12-18T01:21:23;52688.97;;;-144.14;92.59
7075;BME280;3578;51.568;6.932;2022-12-18T01:23:55;52709.00;;;-144.14;92.29
7075;BME280;3578;51.568;6.932;2022-12-18T01:26:25;52749.09;;;-144.14;92.48
7075;BME280;3578;51.568;6.932;2022-12-18T01:28:54;52709.00;;;-144.14;92.34
7075;BME280;3578;51.568;6.932;2022-12-18T01:31:23;52709.00;;;-144.14;93.31
7075;BME280;3578;51.568;6.932;2022-12-18T01:33:51;52709.00;;;-144.14;93.40
7075;BME280;3578;51.568;6.932;2022-12-18T01:36:21;52735.06;;;-144.14;93.08
7075;BME280;3578;51.568;6.932;2022-12-18T01:38:49;52705.00;;;-144.14;92.78
7075;BME280;3578;51.568;6.932;2022-12-18T01:41:19;52723.03;;;-144.14;92.68
7075;BME280;3578;51.568;6.932;2022-12-18T01:43:51;52699.00;;;-144.14;92.91
7075;BME280;3578;51.568;6.932;2022-12-18T01:46:21;52701.00;;;-144.14;93.50
7075;BME280;3578;51.568;6.932;2022-12-18T01:48:54;52715.03;;;-144.14;93.90
7075;BME280;3578;51.568;6.932;2022-12-18T01:51:21;52692.97;;;-144.14;93.64
7075;BME280;3578;51.568;6.932;2022-12-18T01:53:49;52729.03;;;-144.14;93.08
7075;BME280;3578;51.568;6.932;2022-12-18T01:56:18;52686.97;;;-144.14;93.39
7075;BME280;3578;51.568;6.932;2022-12-18T01:58:54;52703.00;;;-144.14;95.58
7075;BME280;3578;51.568;6.932;2022-12-18T02:01:24;52717.03;;;-144.14;96.58
7075;BME280;3578;51.568;6.932;2022-12-18T02:03:52;52664.94;;;-144.14;96.54
7075;BME280;3578;51.568;6.932;2022-12-18T02:06:23;52694.97;;;-144.14;96.14
7075;BME280;3578;51.568;6.932;2022-12-18T02:09:02;52697.00;;;-144.14;96.00
7075;BME280;3578;51.568;6.932;2022-12-18T02:11:43;52729.03;;;-144.14;95.63
7075;BME280;3578;51.568;6.932;2022-12-18T02:14:23;52676.94;;;-144.14;95.15
7075;BME280;3578;51.568;6.932;2022-12-18T02:17:01;52680.97;;;-144.14;94.67
7075;BME280;3578;51.568;6.932;2022-12-18T02:19:59;52719.03;;;-144.14;93.86
7075;BME280;3578;51.568;6.932;2022-12-18T02:22:39;52688.97;;;-144.14;92.99
7075;BME280;3578;51.568;6.932;2022-12-18T02:25:23;52749.09;;;-144.14;92.24
7075;BME280;3578;51.568;6.932;2022-12-18T02:27:53;52713.00;;;-144.14;91.98
7075;BME280;3578;51.568;6.932;2022-12-18T02:30:22;52717.03;;;-144.14;92.59
7075;BME280;3578;51.568;6.932;2022-12-18T02:32:52;52709.00;;;-144.14;93.85
7075;BME280;3578;51.568;6.932;2022-12-18T02:35:23;52662.91;;;-144.14;93.99
7075;BME280;3578;51.568;6.932;2022-12-18T02:37:54;52699.00;;;-144.14;94.03
7075;BME280;3578;51.568;6.932;2022-12-18T02:40:26;52713.00;;;-144.14;93.92
7075;BME280;3578;51.568;6.932;2022-12-18T02:42:55;52761.09;;;-144.14;93.55
7075;BME280;3578;51.568;6.932;2022-12-18T02:45:28;52715.03;;;-144.14;93.07
7075;BME280;3578;51.568;6.932;2022-12-18T02:47:56;52686.97;;;-144.14;92.53
7075;BME280;3578;51.568;6.932;2022-12-18T02:50:30;52723.03;;;-144.14;92.26
7075;BME280;3578;51.568;6.932;2022-12-18T02:53:10;52686.97;;;-144.14;91.92
7075;BME280;3578;51.568;6.932;2022-12-18T02:55:54;52682.97;;;-144.14;92.26
7075;BME280;3578;51.568;6.932;2022-12-18T02:58:33;52711.00;;;-144.14;92.08
7075;BME280;3578;51.568;6.932;2022-12-18T03:01:12;52711.00;;;-144.14;91.64
7075;BME280;3578;51.568;6.932;2022-12-18T03:03:46;52717.03;;;-144.14;91.55
7075;BME280;3578;51.568;6.932;2022-12-18T03:06:22;52781.16;;;-144.14;91.85
7075;BME280;3578;51.568;6.932;2022-12-18T03:08:57;52737.06;;;-144.14;92.14
7075;BME280;3578;51.568;6.932;2022-12-18T03:11:26;52737.06;;;-144.14;92.34
7075;BME280;3578;51.568;6.932;2022-12-18T03:14:11;52705.00;;;-144.14;92.27
7075;BME280;3578;51.568;6.932;2022-12-18T03:16:41;52707.00;;;-144.14;92.24
7075;BME280;3578;51.568;6.932;2022-12-18T03:19:14;52721.03;;;-144.14;91.93
7075;BME280;3578;51.568;6.932;2022-12-18T03:21:45;52725.03;;;-144.14;91.67
7075;BME280;3578;51.568;6.932;2022-12-18T03:24:13;52723.03;;;-144.14;91.58
7075;BME280;3578;51.568;6.932;2022-12-18T03:26:44;52721.03;;;-144.14;91.63
7075;BME280;3578;51.568;6.932;2022-12-18T03:29:19;52749.09;;;-144.14;91.76
7075;BME280;3578;51.568;6.932;2022-12-18T03:31:53;52725.03;;;-144.14;91.42
7075;BME280;3578;51.568;6.932;2022-12-18T03:34:26;52739.06;;;-144.14;91.05
7075;BME280;3578;51.568;6.932;2022-12-18T03:36:53;52727.03;;;-144.14;90.85
7075;BME280;3578;51.568;6.932;2022-12-18T03:39:20;52733.06;;;-144.14;90.81
7075;BME280;3578;51.568;6.932;2022-12-18T03:41:52;52729.03;;;-144.14;90.86
7075;BME280;3578;51.568;6.932;2022-12-18T03:44:29;52735.06;;;-144.14;90.58
7075;BME280;3578;51.568;6.932;2022-12-18T03:47:05;52723.03;;;-144.14;90.19
7075;BME280;3578;51.568;6.932;2022-12-18T03:49:38;52721.03;;;-144.14;90.03
7075;BME280;3578;51.568;6.932;2022-12-18T03:52:11;52727.03;;;-144.14;90.19
7075;BME280;3578;51.568;6.932;2022-12-18T03:54:41;52739.06;;;-144.14;90.25
7075;BME280;3578;51.568;6.932;2022-12-18T03:57:13;52753.09;;;-144.14;90.41
7075;BME280;3578;51.568;6.932;2022-12-18T03:59:44;52688.97;;;-144.14;90.55
7075;BME280;3578;51.568;6.932;2022-12-18T04:02:12;52745.06;;;-144.14;90.57
7075;BME280;3578;51.568;6.932;2022-12-18T04:04:42;52733.06;;;-144.14;90.78
7075;BME280;3578;51.568;6.932;2022-12-18T04:07:10;52753.09;;;-144.14;91.26
7075;BME280;3578;51.568;6.932;2022-12-18T04:09:39;52721.03;;;-144.14;90.86
7075;BME280;3578;51.568;6.932;2022-12-18T04:12:08;52721.03;;;-144.14;90.60
7075;BME280;3578;51.568;6.932;2022-12-18T04:14:35;52751.09;;;-144.14;90.23
7075;BME280;3578;51.568;6.932;2022-12-18T04:17:04;52733.06;;;-144.14;90.35
7075;BME280;3578;51.568;6.932;2022-12-18T04:19:31;52751.09;;;-144.14;90.47
7075;BME280;3578;51.568;6.932;2022-12-18T04:21:58;52709.00;;;-144.14;90.35
7075;BME280;3578;51.568;6.932;2022-12-18T04:24:24;52747.09;;;-144.14;90.00
7075;BME280;3578;51.568;6.932;2022-12-18T04:26:52;52709.00;;;-144.14;89.70
7075;BME280;3578;51.568;6.932;2022-12-18T04:29:18;52709.00;;;-144.14;89.94
7075;BME280;3578;51.568;6.932;2022-12-18T04:31:45;52723.03;;;-144.14;91.14
7075;BME280;3578;51.568;6.932;2022-12-18T04:34:14;52717.03;;;-144.14;91.97
7075;BME280;3578;51.568;6.932;2022-12-18T04:36:41;52723.03;;;-144.14;92.13
7075;BME280;3578;51.568;6.932;2022-12-18T04:39:08;52697.00;;;-144.14;91.95
7075;BME280;3578;51.568;6.932;2022-12-18T04:41:35;52745.06;;;-144.14;91.39
7075;BME280;3578;51.568;6.932;2022-12-18T04:44:02;52717.03;;;-144.14;91.12
7075;BME280;3578;51.568;6.932;2022-12-18T04:46:29;52705.00;;;-144.14;91.07
7075;BME280;3578;51.568;6.932;2022-12-18T04:48:56;52668.94;;;-144.14;90.79
7075;BME280;3578;51.568;6.932;2022-12-18T04:51:25;52749.09;;;-144.14;90.46
7075;BME280;3578;51.568;6.932;2022-12-18T04:53:52;52717.03;;;-144.14;90.25
7075;BME280;3578;51.568;6.932;2022-12-18T04:56:19;52737.06;;;-144.14;90.03
7075;BME280;3578;51.568;6.932;2022-12-18T04:58:46;52731.06;;;-144.14;89.89
7075;BME280;3578;51.568;6.932;2022-12-18T05:01:16;52727.03;;;-144.14;90.13
7075;BME280;3578;51.568;6.932;2022-12-18T05:03:43;52713.00;;;-144.14;90.03
7075;BME280;3578;51.568;6.932;2022-12-18T05:06:10;52749.09;;;-144.14;89.80
7075;BME280;3578;51.568;6.932;2022-12-18T05:08:39;52735.06;;;-144.14;90.33
7075;BME280;3578;51.568;6.932;2022-12-18T05:11:08;52719.03;;;-144.14;91.12
7075;BME280;3578;51.568;6.932;2022-12-18T05:13:36;52719.03;;;-144.14;91.41
7075;BME280;3578;51.568;6.932;2022-12-18T05:16:04;52733.06;;;-144.14;90.99
7075;BME280;3578;51.568;6.932;2022-12-18T05:18:31;52729.03;;;-144.14;90.33
7075;BME280;3578;51.568;6.932;2022-12-18T05:20:58;52741.06;;;-144.14;89.95
7075;BME280;3578;51.568;6.932;2022-12-18T05:23:26;52753.09;;;-144.14;89.62
7075;BME280;3578;51.568;6.932;2022-12-18T05:25:57;52765.13;;;-144.14;89.31
7075;BME280;3578;51.568;6.932;2022-12-18T05:28:26;52751.09;;;-144.14;89.50
7075;BME280;3578;51.568;6.932;2022-12-18T05:30:55;52723.03;;;-144.14;90.59
7075;BME280;3578;51.568;6.932;2022-12-18T05:33:26;52757.09;;;-144.14;91.60
7075;BME280;3578;51.568;6.932;2022-12-18T05:35:56;52729.03;;;-144.14;92.05
7075;BME280;3578;51.568;6.932;2022-12-18T05:38:25;52729.03;;;-144.14;91.98
7075;BME280;3578;51.568;6.932;2022-12-18T05:40:55;52741.06;;;-144.14;91.42
7075;BME280;3578;51.568;6.932;2022-12-18T05:43:24;52733.06;;;-144.14;90.75
7075;BME280;3578;51.568;6.932;2022-12-18T05:45:53;52709.00;;;-144.14;90.68
7075;BME280;3578;51.568;6.932;2022-12-18T05:48:20;52725.03;;;-144.14;90.64
7075;BME280;3578;51.568;6.932;2022-12-18T05:50:48;52721.03;;;-144.14;90.50
7075;BME280;3578;51.568;6.932;2022-12-18T05:53:18;52717.03;;;-144.14;90.89
7075;BME280;3578;51.568;6.932;2022-12-18T05:55:46;52735.06;;;-144.14;91.34
7075;BME280;3578;51.568;6.932;2022-12-18T05:58:16;52709.00;;;-144.14;91.34
7075;BME280;3578;51.568;6.932;2022-12-18T06:00:45;52727.03;;;-144.14;91.54
7075;BME280;3578;51.568;6.932;2022-12-18T06:03:13;52705.00;;;-144.14;91.36
7075;BME280;3578;51.568;6.932;2022-12-18T06:05:42;52749.09;;;-144.14;91.20
7075;BME280;3578;51.568;6.932;2022-12-18T06:08:11;52749.09;;;-144.14;90.80
7075;BME280;3578;51.568;6.932;2022-12-18T06:10:38;52731.06;;;-144.14;90.49
7075;BME280;3578;51.568;6.932;2022-12-18T06:13:06;52729.03;;;-144.14;90.01
7075;BME280;3578;51.568;6.932;2022-12-18T06:15:36;52737.06;;;-144.14;89.53
7075;BME280;3578;51.568;6.932;2022-12-18T06:18:04;52739.06;;;-144.14;89.13
7075;BME280;3578;51.568;6.932;2022-12-18T06:20:30;52709.00;;;-144.14;89.33
7075;BME280;3578;51.568;6.932;2022-12-18T06:22:57;52733.06;;;-144.14;88.98
7075;BME280;3578;51.568;6.932;2022-12-18T06:25:24;52715.03;;;-144.14;89.14
7075;BME280;3578;51.568;6.932;2022-12-18T06:27:51;52753.09;;;-144.14;89.95
7075;BME280;3578;51.568;6.932;2022-12-18T06:30:18;52735.06;;;-144.14;90.36
7075;BME280;3578;51.568;6.932;2022-12-18T06:32:48;52709.00;;;-144.14;90.88
7075;BME280;3578;51.568;6.932;2022-12-18T06:35:15;52723.03;;;-144.14;90.79
7075;BME280;3578;51.568;6.932;2022-12-18T06:37:42;52690.97;;;-144.14;90.12
7075;BME280;3578;51.568;6.932;2022-12-18T06:40:10;52717.03;;;-144.14;89.42
7075;BME280;3578;51.568;6.932;2022-12-18T06:42:37;52713.00;;;-144.14;89.29
7075;BME280;3578;51.568;6.932;2022-12-18T06:45:05;52735.06;;;-144.14;89.40
7075;BME280;3578;51.568;6.932;2022-12-18T06:47:33;52711.00;;;-144.14;89.33
7075;BME280;3578;51.568;6.932;2022-12-18T06:50:02;52785.16;;;-144.14;89.29
7075;BME280;3578;51.568;6.932;2022-12-18T06:52:31;52729.03;;;-144.14;89.17
7075;BME280;3578;51.568;6.932;2022-12-18T06:54:59;52733.06;;;-144.14;88.89
7075;BME280;3578;51.568;6.932;2022-12-18T06:57:26;52735.06;;;-144.14;88.71
7075;BME280;3578;51.568;6.932;2022-12-18T06:59:53;52715.03;;;-144.14;88.69
7075;BME280;3578;51.568;6.932;2022-12-18T07:02:20;52680.97;;;-144.14;88.74
7075;BME280;3578;51.568;6.932;2022-12-18T07:04:50;52719.03;;;-144.14;88.90
7075;BME280;3578;51.568;6.932;2022-12-18T07:07:19;52715.03;;;-144.14;88.90
7075;BME280;3578;51.568;6.932;2022-12-18T07:09:46;52761.09;;;-144.14;88.73
7075;BME280;3578;51.568;6.932;2022-12-18T07:12:13;52707.00;;;-144.14;88.82
7075;BME280;3578;51.568;6.932;2022-12-18T07:14:40;52747.09;;;-144.14;89.23
7075;BME280;3578;51.568;6.932;2022-12-18T07:17:07;52717.03;;;-144.14;89.24
7075;BME280;3578;51.568;6.932;2022-12-18T07:19:34;52735.06;;;-144.14;89.02
7075;BME280;3578;51.568;6.932;2022-12-18T07:22:01;52745.06;;;-144.14;89.20
7075;BME280;3578;51.568;6.932;2022-12-18T07:24:29;52757.09;;;-144.14;89.00
7075;BME280;3578;51.568;6.932;2022-12-18T07:26:56;52721.03;;;-144.14;89.03
7075;BME280;3578;51.568;6.932;2022-12-18T07:29:23;52743.06;;;-144.14;89.19
7075;BME280;3578;51.568;6.932;2022-12-18T07:31:50;52797.19;;;-144.14;89.07
7075;BME280;3578;51.568;6.932;2022-12-18T07:34:17;52721.03;;;-144.14;89.08
7075;BME280;3578;51.568;6.932;2022-12-18T07:36:44;52739.06;;;-144.14;89.00
7075;BME280;3578;51.568;6.932;2022-12-18T07:39:12;52723.03;;;-144.14;89.15
7075;BME280;3578;51.568;6.932;2022-12-18T07:41:40;52709.00;;;-144.14;89.04
7075;BME280;3578;51.568;6.932;2022-12-18T07:44:11;52743.06;;;-144.14;88.76
7075;BME280;3578;51.568;6.932;2022-12-18T07:46:38;52751.09;;;-144.14;88.90
7075;BME280;3578;51.568;6.932;2022-12-18T07:49:05;52759.09;;;-144.14;89.35
7075;BME280;3578;51.568;6.932;2022-12-18T07:51:33;52727.03;;;-144.14;90.27
7075;BME280;3578;51.568;6.932;2022-12-18T07:54:00;52741.06;;;-144.14;90.94
7075;BME280;3578;51.568;6.932;2022-12-18T07:56:27;52749.09;;;-144.14;91.16
7075;BME280;3578;51.568;6.932;2022-12-18T07:58:57;52709.00;;;-144.14;91.26
7075;BME280;3578;51.568;6.932;2022-12-18T08:01:25;52749.09;;;-144.14;91.08
7075;BME280;3578;51.568;6.932;2022-12-18T08:03:52;52741.06;;;-144.14;90.70
7075;BME280;3578;51.568;6.932;2022-12-18T08:06:19;52715.03;;;-144.14;90.13
7075;BME280;3578;51.568;6.932;2022-12-18T08:08:46;52717.03;;;-144.14;89.83
7075;BME280;3578;51.568;6.932;2022-12-18T08:11:13;52773.13;;;-144.14;90.04
7075;BME280;3578;51.568;6.932;2022-12-18T08:13:40;52749.09;;;-144.14;89.99
7075;BME280;3578;51.568;6.932;2022-12-18T08:16:09;52767.13;;;-144.14;89.69
7075;BME280;3578;51.568;6.932;2022-12-18T08:18:37;52783.16;;;-144.14;89.77
7075;BME280;3578;51.568;6.932;2022-12-18T08:21:10;52735.06;;;-144.14;90.21
7075;BME280;3578;51.568;6.932;2022-12-18T08:23:38;52759.09;;;-144.14;90.07
7075;BME280;3578;51.568;6.932;2022-12-18T08:26:06;52765.13;;;-144.14;89.80
7075;BME280;3578;51.568;6.932;2022-12-18T08:28:33;52765.13;;;-144.14;89.85
7075;BME280;3578;51.568;6.932;2022-12-18T08:31:00;52759.09;;;-144.14;90.20
7075;BME280;3578;51.568;6.932;2022-12-18T08:33:29;52759.09;;;-144.14;90.65
7075;BME280;3578;51.568;6.932;2022-12-18T08:35:56;52749.09;;;-144.14;90.55
7075;BME280;3578;51.568;6.932;2022-12-18T08:38:24;52739.06;;;-144.14;90.27
7075;BME280;3578;51.568;6.932;2022-12-18T08:40:58;52787.16;;;-144.14;90.24
7075;BME280;3578;51.568;6.932;2022-12-18T08:43:25;52737.06;;;-144.14;90.86
7075;BME280;3578;51.568;6.932;2022-12-18T08:46:10;52717.03;;;-144.14;90.96
7075;BME280;3578;51.568;6.932;2022-12-18T08:48:38;52779.16;;;-144.14;90.75
7075;BME280;3578;51.568;6.932;2022-12-18T08:51:05;52789.16;;;-144.14;90.95
7075;BME280;3578;51.568;6.932;2022-12-18T08:53:32;52803.19;;;-144.14;91.29
7075;BME280;3578;51.568;6.932;2022-12-18T08:55:59;52775.13;;;-144.14;91.04
7075;BME280;3578;51.568;6.932;2022-12-18T08:58:26;52773.13;;;-144.14;92.27
7075;BME280;3578;51.568;6.932;2022-12-18T09:00:53;52793.16;;;-144.14;93.57
7075;BME280;3578;51.568;6.932;2022-12-18T09:03:21;52729.03;;;-144.14;93.76
7075;BME280;3578;51.568;6.932;2022-12-18T09:05:50;52797.19;;;-144.14;93.73
7075;BME280;3578;51.568;6.932;2022-12-18T09:08:17;52761.09;;;-144.14;92.88
7075;BME280;3578;51.568;6.932;2022-12-18T09:10:45;52795.16;;;-144.14;92.69
7075;BME280;3578;51.568;6.932;2022-12-18T09:13:13;52793.16;;;-144.14;91.93
7075;BME280;3578;51.568;6.932;2022-12-18T09:15:41;52769.13;;;-144.14;92.19
7075;BME280;3578;51.568;6.932;2022-12-18T09:18:09;52771.13;;;-144.14;92.77
7075;BME280;3578;51.568;6.932;2022-12-18T09:20:36;52781.16;;;-144.14;93.72
7075;BME280;3578;51.568;6.932;2022-12-18T09:23:05;52773.13;;;-144.14;94.74
7075;BME280;3578;51.568;6.932;2022-12-18T09:25:33;52775.13;;;-144.14;94.17
7075;BME280;3578;51.568;6.932;2022-12-18T09:28:09;52775.13;;;-144.14;93.07
7075;BME280;3578;51.568;6.932;2022-12-18T09:30:37;52773.13;;;-144.14;93.61
7075;BME280;3578;51.568;6.932;2022-12-18T09:33:04;52773.13;;;-144.14;94.14
7075;BME280;3578;51.568;6.932;2022-12-18T09:35:31;52777.13;;;-144.14;94.26
7075;BME280;3578;51.568;6.932;2022-12-18T09:37:58;52801.19;;;-144.14;94.35
7075;BME280;3578;51.568;6.932;2022-12-18T09:40:32;52813.22;;;-144.14;94.52
7075;BME280;3578;51.568;6.932;2022-12-18T09:43:04;52785.16;;;-144.14;94.62
7075;BME280;3578;51.568;6.932;2022-12-18T09:45:41;52811.19;;;-144.14;94.60
7075;BME280;3578;51.568;6.932;2022-12-18T09:48:11;52809.19;;;-144.14;94.57
7075;BME280;3578;51.568;6.932;2022-12-18T09:50:43;52775.13;;;-144.14;94.83
7075;BME280;3578;51.568;6.932;2022-12-18T09:53:15;52777.13;;;-144.14;95.21
7075;BME280;3578;51.568;6.932;2022-12-18T09:55:46;52847.28;;;-144.14;95.40
7075;BME280;3578;51.568;6.932;2022-12-18T09:58:20;52803.19;;;-144.14;95.25
7075;BME280;3578;51.568;6.932;2022-12-18T10:00:52;52851.28;;;-144.14;95.12
7075;BME280;3578;51.568;6.932;2022-12-18T10:03:19;52829.25;;;-144.14;95.27
7075;BME280;3578;51.568;6.932;2022-12-18T10:05:59;52821.22;;;-144.14;95.72
7075;BME280;3578;51.568;6.932;2022-12-18T10:08:37;52811.19;;;-144.14;96.12
7075;BME280;3578;51.568;6.932;2022-12-18T10:11:35;52851.28;;;-144.14;96.60
7075;BME280;3578;51.568;6.932;2022-12-18T10:14:13;52789.16;;;-144.14;96.51
7075;BME280;3578;51.568;6.932;2022-12-18T10:16:55;52821.22;;;-144.14;96.65
7075;BME280;3578;51.568;6.932;2022-12-18T10:19:39;52837.25;;;-144.14;96.46
7075;BME280;3578;51.568;6.932;2022-12-18T10:22:25;52859.28;;;-144.14;95.99
7075;BME280;3578;51.568;6.932;2022-12-18T10:24:59;52867.31;;;-144.14;95.71
7075;BME280;3578;51.568;6.932;2022-12-18T10:27:31;52893.38;;;-144.14;95.22
7075;BME280;3578;51.568;6.932;2022-12-18T10:29:58;52889.34;;;-144.14;95.17
7075;BME280;3578;51.568;6.932;2022-12-18T10:32:29;52863.31;;;-144.14;94.99
7075;BME280;3578;51.568;6.932;2022-12-18T10:34:58;52867.31;;;-144.14;95.55
7075;BME280;3578;51.568;6.932;2022-12-18T10:37:27;52905.38;;;-144.14;95.24
7075;BME280;3578;51.568;6.932;2022-12-18T10:40:12;52865.31;;;-144.14;94.47
7075;BME280;3578;51.568;6.932;2022-12-18T10:42:42;52863.31;;;-144.14;94.46
7075;BME280;3578;51.568;6.932;2022-12-18T10:45:12;52901.38;;;-144.14;94.31
7075;BME280;3578;51.568;6.932;2022-12-18T10:47:43;52937.44;;;-144.14;94.29
7075;BME280;3578;51.568;6.932;2022-12-18T10:50:22;52905.38;;;-144.14;92.65
7075;BME280;3578;51.568;6.932;2022-12-18T10:52:57;52953.47;;;-144.14;91.21
7075;BME280;3578;51.568;6.932;2022-12-18T10:55:30;52937.44;;;-144.14;91.21
7075;BME280;3578;51.568;6.932;2022-12-18T10:58:16;52971.50;;;-144.14;91.60
7075;BME280;3578;51.568;6.932;2022-12-18T11:00:44;52955.47;;;-144.14;91.58
7075;BME280;3578;51.568;6.932;2022-12-18T11:03:31;52957.50;;;-144.14;91.63
7075;BME280;3578;51.568;6.932;2022-12-18T11:06:08;52989.56;;;-144.14;92.06
7075;BME280;3578;51.568;6.932;2022-12-18T11:08:36;52975.53;;;-144.14;92.08
7075;BME280;3578;51.568;6.932;2022-12-18T11:11:04;52933.44;;;-144.14;92.30
7075;BME280;3578;51.568;6.932;2022-12-18T11:13:34;52953.47;;;-144.14;92.56
7075;BME280;3578;51.568;6.932;2022-12-18T11:16:01;52975.53;;;-144.14;92.81
7075;BME280;3578;51.568;6.932;2022-12-18T11:18:31;52981.53;;;-144.14;92.88
7075;BME280;3578;51.568;6.932;2022-12-18T11:21:06;52967.50;;;-144.14;92.73
7075;BME280;3578;51.568;6.932;2022-12-18T11:23:34;52957.50;;;-144.14;93.02
7075;BME280;3578;51.568;6.932;2022-12-18T11:26:04;52957.50;;;-144.14;92.90
7075;BME280;3578;51.568;6.932;2022-12-18T11:28:38;52947.47;;;-144.14;93.26
7075;BME280;3578;51.568;6.932;2022-12-18T11:31:28;52959.50;;;-144.14;93.48
7075;BME280;3578;51.568;6.932;2022-12-18T11:34:01;52973.53;;;-144.14;93.47
7075;BME280;3578;51.568;6.932;2022-12-18T11:36:34;52955.47;;;-144.14;93.66
7075;BME280;3578;51.568;6.932;2022-12-18T11:39:12;52971.50;;;-144.14;94.06
7075;BME280;3578;51.568;6.932;2022-12-18T11:41:48;52905.38;;;-144.14;94.72
7075;BME280;3578;51.568;6.932;2022-12-18T11:44:39;52963.50;;;-144.14;94.50
7075;BME280;3578;51.568;6.932;2022-12-18T11:47:19;52985.53;;;-144.14;93.44
7075;BME280;3578;51.568;6.932;2022-12-18T11:49:49;52963.50;;;-144.14;92.43
7075;BME280;3578;51.568;6.932;2022-12-18T11:52:19;52989.56;;;-144.14;91.11
7075;BME280;3578;51.568;6.932;2022-12-18T11:54:51;52999.56;;;-144.14;89.43
7075;BME280;3578;51.568;6.932;2022-12-18T11:57:31;53005.59;;;-144.14;89.10
7075;BME280;3578;51.568;6.932;2022-12-18T12:00:11;53021.63;;;-144.14;89.16
7075;BME280;3578;51.568;6.932;2022-12-18T12:03:09;53023.63;;;-144.14;90.46
7075;BME280;3578;51.568;6.932;2022-12-18T12:05:50;53041.66;;;-144.14;91.07
7075;BME280;3578;51.568;6.932;2022-12-18T12:08:33;53025.63;;;-144.14;91.86
7075;BME280;3578;51.568;6.932;2022-12-18T12:11:10;53023.63;;;-144.14;91.59
7075;BME280;3578;51.568;6.932;2022-12-18T12:13:49;53025.63;;;-144.14;90.28
7075;BME280;3578;51.568;6.932;2022-12-18T12:16:24;53017.59;;;-144.14;89.89
7075;BME280;3578;51.568;6.932;2022-12-18T12:19:10;53005.59;;;-144.14;90.29
7075;BME280;3578;51.568;6.932;2022-12-18T12:21:41;53025.63;;;-144.14;91.12
7075;BME280;3578;51.568;6.932;2022-12-18T12:24:27;53015.59;;;-144.14;90.90
7075;BME280;3578;51.568;6.932;2022-12-18T12:27:07;52999.56;;;-144.14;91.39
7075;BME280;3578;51.568;6.932;2022-12-18T12:29:50;53003.56;;;-144.14;91.95
7075;BME280;3578;51.568;6.932;2022-12-18T12:32:49;53013.59;;;-144.14;92.00
7075;BME280;3578;51.568;6.932;2022-12-18T12:35:32;52983.53;;;-144.14;92.84
7075;BME280;3578;51.568;6.932;2022-12-18T12:38:09;53033.63;;;-144.14;92.59
7075;BME280;3578;51.568;6.932;2022-12-18T12:40:43;53037.66;;;-144.14;93.03
7075;BME280;3578;51.568;6.932;2022-12-18T12:43:27;52981.53;;;-144.14;93.09
7075;BME280;3578;51.568;6.932;2022-12-18T12:45:57;52977.53;;;-144.14;92.62
7075;BME280;3578;51.568;6.932;2022-12-18T12:48:36;52989.56;;;-144.14;92.86
7075;BME280;3578;51.568;6.932;2022-12-18T12:51:14;52989.56;;;-144.14;92.96
7075;BME280;3578;51.568;6.932;2022-12-18T12:53:43;53011.59;;;-144.14;90.97
7075;BME280;3578;51.568;6.932;2022-12-18T12:56:14;53035.63;;;-144.14;90.07
7075;BME280;3578;51.568;6.932;2022-12-18T12:58:52;52995.56;;;-144.14;89.30
7075;BME280;3578;51.568;6.932;2022-12-18T13:01:33;52963.50;;;-144.14;88.97
7075;BME280;3578;51.568;6.932;2022-12-18T13:04:15;53037.66;;;-144.14;89.83
7075;BME280;3578;51.568;6.932;2022-12-18T13:06:52;53019.59;;;-144.14;89.95
7075;BME280;3578;51.568;6.932;2022-12-18T13:09:22;52999.56;;;-144.14;90.06
7075;BME280;3578;51.568;6.932;2022-12-18T13:11:49;53027.63;;;-144.14;89.96
7075;BME280;3578;51.568;6.932;2022-12-18T13:14:37;53027.63;;;-144.14;90.46
7075;BME280;3578;51.568;6.932;2022-12-18T13:17:29;53017.59;;;-144.14;89.92
7075;BME280;3578;51.568;6.932;2022-12-18T13:20:12;53007.59;;;-144.14;90.23
7075;BME280;3578;51.568;6.932;2022-12-18T13:22:43;53013.59;;;-144.14;91.07